Time;durP1;ratioP1;P1;durP2;ratioP2;P2;SDS_P1;SDS_P2;PMS_P1;PMS_P2;Temp;Humidity;BMP_temperature;BMP_pressure;BME280_temperature;BME280_humidity;BME280_pressure;Samples;Min_cycle;Max_cycle;Signal;HPM_P1;HPM_P2
2022/04/05 00:00:50;;;;;;;;;;;;;;;;;;5137766;27;19994;-68
2022/04/05 00:03:16;;;;;;;;;;;;;;;;;;5136041;27;19969;-68
2022/04/05 00:05:42;;;;;;;;;;;;;;;;;;5137725;27;19912;-68
2022/04/05 00:08:08;;;;;;;;;;;;;;;;;;5137693;27;19907;-68
2022/04/05 00:10:36;;;;;;;;;;;;;;;;;;5137248;27;19930;-68
2022/04/05 00:13:02;;;;;;;;;;;;;;;;;;5137570;27;19908;-67
2022/04/05 00:15:28;;;;;;;;;;;;;;;;;;5137116;27;19907;-67
2022/04/05 00:17:54;;;;;;;;;;;;;;;;;;5135627;27;19959;-67
2022/04/05 00:20:20;;;;;;;;;;;;;;;;;;5137390;27;19993;-68
2022/04/05 00:22:46;;;;;;;;;;;;;;;;;;5136058;27;19912;-67
2022/04/05 00:25:12;;;;;;;;;;;;;;;;;;5137012;27;20085;-67
2022/04/05 00:27:38;;;;;;;;;;;;;;;;;;5137366;27;19908;-67
2022/04/05 00:30:04;;;;;;;;;;;;;;;;;;5136980;27;19914;-70
2022/04/05 00:32:30;;;;;;;;;;;;;;;;;;5137697;27;19994;-68
2022/04/05 00:34:56;;;;;;;;;;;;;;;;;;5137328;27;20390;-68
2022/04/05 00:37:22;;;;;;;;;;;;;;;;;;5136611;27;19908;-68
2022/04/05 00:39:50;;;;;;;;;;;;;;;;;;5137077;27;19914;-68
2022/04/05 00:42:16;;;;;;;;;;;;;;;;;;5137052;27;19912;-69
2022/04/05 00:44:42;;;;;;;;;;;;;;;;;;5136462;27;19926;-68
2022/04/05 00:47:08;;;;;;;;;;;;;;;;;;5137411;27;19907;-68
2022/04/05 00:49:34;;;;;;;;;;;;;;;;;;5137011;27;20349;-68
2022/04/05 00:52:00;;;;;;;;;;;;;;;;;;5135076;27;19960;-68
2022/04/05 00:54:26;;;;;;;;;;;;;;;;;;5135437;27;19911;-68
2022/04/05 00:56:52;;;;;;;;;;;;;;;;;;5137020;27;19915;-68
2022/04/05 00:59:18;;;;;;;;;;;;;;;;;;5136170;27;19982;-69
2022/04/05 01:01:44;;;;;;;;;;;;;;;;;;5136671;27;19963;-68
2022/04/05 01:04:10;;;;;;;;;;;;;;;;;;5135175;27;20385;-69
2022/04/05 01:06:36;;;;;;;;;;;;;;;;;;5136101;27;19918;-69
2022/04/05 01:09:02;;;;;;;;;;;;;;;;;;5136501;27;19907;-69
2022/04/05 01:11:28;;;;;;;;;;;;;;;;;;5136465;27;19914;-68
2022/04/05 01:13:54;;;;;;;;;;;;;;;;;;5136114;27;20002;-69
2022/04/05 01:16:20;;;;;;;;;;;;;;;;;;5136341;27;19907;-69
2022/04/05 01:18:46;;;;;;;;;;;;;;;;;;5136345;27;20014;-68
2022/04/05 01:21:14;;;;;;;;;;;;;;;;;;5134517;27;20343;-68
2022/04/05 01:23:40;;;;;;;;;;;;;;;;;;5136678;27;19971;-69
2022/04/05 01:26:06;;;;;;;;;;;;;;;;;;5136169;27;20423;-67
2022/04/05 01:28:32;;;;;;;;;;;;;;;;;;5135129;27;19907;-67
2022/04/05 01:30:58;;;;;;;;;;;;;;;;;;5136152;27;19908;-67
2022/04/05 01:33:24;;;;;;;;;;;;;;;;;;5134340;27;19908;-68
2022/04/05 01:35:50;;;;;;;;;;;;;;;;;;5136060;27;19952;-68
2022/04/05 01:38:16;;;;;;;;;;;;;;;;;;5136323;27;19911;-68
2022/04/05 01:40:42;;;;;;;;;;;;;;;;;;5135736;27;19907;-68
2022/04/05 01:43:08;;;;;;;;;;;;;;;;;;5134227;27;19915;-68
2022/04/05 01:45:35;;;;;;;;;;;;;;;;;;5135886;27;19986;-68
2022/04/05 01:48:01;;;;;;;;;;;;;;;;;;5135484;27;19908;-68
2022/04/05 01:50:27;;;;;;;;;;;;;;;;;;5135670;27;19908;-68
2022/04/05 01:52:53;;;;;;;;;;;;;;;;;;5135806;27;19912;-68
2022/04/05 01:55:19;;;;;;;;;;;;;;;;;;5135474;27;20345;-69
2022/04/05 01:57:45;;;;;;;;;;;;;;;;;;5135686;27;19939;-68
2022/04/05 02:00:14;;;;;;;;;;;;;;;;;;5135435;27;19908;-68
2022/04/05 02:02:40;;;;;;;;;;;;;;;;;;5133729;27;19973;-69
2022/04/05 02:05:06;;;;;;;;;;;;;;;;;;5134067;27;19928;-69
2022/04/05 02:07:32;;;;;;;;;;;;;;;;;;5135384;27;20389;-68
2022/04/05 02:09:58;;;;;;;;;;;;;;;;;;5134996;27;19998;-68
2022/04/05 02:12:24;;;;;;;;;;;;;;;;;;5133990;27;19908;-68
2022/04/05 02:14:50;;;;;;;;;;;;;;;;;;5135198;27;19907;-68
2022/04/05 02:17:16;;;;;;;;;;;;;;;;;;5134812;27;19912;-68
2022/04/05 02:19:43;;;;;;;;;;;;;;;;;;5135394;27;19934;-69
2022/04/05 02:22:09;;;;;;;;;;;;;;;;;;5135172;27;19914;-68
2022/04/05 02:24:35;;;;;;;;;;;;;;;;;;5134599;27;19920;-68
2022/04/05 02:27:02;;;;;;;;;;;;;;;;;;5135057;27;19932;-68
2022/04/05 02:29:28;;;;;;;;;;;;;;;;;;5134674;27;19942;-68
2022/04/05 02:31:54;;;;;;;;;;;;;;;;;;5135300;27;19914;-68
2022/04/05 02:34:20;;;;;;;;;;;;;;;;;;5133625;27;20363;-69
2022/04/05 02:36:46;;;;;;;;;;;;;;;;;;5133320;27;19937;-69
2022/04/05 02:39:11;;;;;;;;;;;;;;;;;;5134698;27;20335;-69
2022/04/05 02:41:38;;;;;;;;;;;;;;;;;;5133596;27;19907;-69
2022/04/05 02:44:04;;;;;;;;;;;;;;;;;;5134099;27;20010;-68
2022/04/05 02:46:29;;;;;;;;;;;;;;;;;;5135438;28;19960;-68
2022/04/05 02:48:55;;;;;;;;;;;;;;;;;;5134816;28;19912;-69
2022/04/05 02:51:21;;;;;;;;;;;;;;;;;;5134397;28;20290;-69
2022/04/05 02:53:47;;;;;;;;;;;;;;;;;;5134737;28;19914;-69
2022/04/05 02:56:14;;;;;;;;;;;;;;;;;;5134944;28;19907;-69
2022/04/05 02:58:39;;;;;;;;;;;;;;;;;;5134459;27;19907;-69
2022/04/05 03:01:05;;;;;;;;;;;;;;;;;;5134834;28;19919;-69
2022/04/05 03:03:32;;;;;;;;;;;;;;;;;;5134595;28;20440;-69
2022/04/05 03:05:58;;;;;;;;;;;;;;;;;;5134258;27;19954;-69
2022/04/05 03:08:24;;;;;;;;;;;;;;;;;;5130493;28;19938;-69
2022/04/05 03:10:50;;;;;;;;;;;;;;;;;;5134607;28;19914;-68
2022/04/05 03:13:16;;;;;;;;;;;;;;;;;;5134304;28;19917;-69
2022/04/05 03:15:42;;;;;;;;;;;;;;;;;;5134521;28;19998;-69
2022/04/05 03:18:08;;;;;;;;;;;;;;;;;;5133951;28;19912;-68
2022/04/05 03:20:34;;;;;;;;;;;;;;;;;;5134200;28;19972;-69
2022/04/05 03:23:00;;;;;;;;;;;;;;;;;;5134759;28;20034;-69
2022/04/05 03:25:26;;;;;;;;;;;;;;;;;;5134467;27;20389;-69
2022/04/05 03:27:52;;;;;;;;;;;;;;;;;;5134121;28;19918;-69
2022/04/05 03:30:19;;;;;;;;;;;;;;;;;;5134421;28;19907;-68
2022/04/05 03:32:45;;;;;;;;;;;;;;;;;;5132828;28;20374;-69
2022/04/05 03:35:11;;;;;;;;;;;;;;;;;;5134341;28;19908;-69
2022/04/05 03:37:37;;;;;;;;;;;;;;;;;;5134335;28;20386;-69
2022/04/05 03:40:03;;;;;;;;;;;;;;;;;;5133970;28;19915;-69
2022/04/05 03:42:29;;;;;;;;;;;;;;;;;;5132858;28;20317;-69
2022/04/05 03:44:55;;;;;;;;;;;;;;;;;;5132838;28;19972;-69
2022/04/05 03:47:21;;;;;;;;;;;;;;;;;;5133819;28;19907;-69
2022/04/05 03:49:47;;;;;;;;;;;;;;;;;;5132991;28;19929;-68
2022/04/05 03:52:13;;;;;;;;;;;;;;;;;;5136886;27;19907;-68
2022/04/05 03:54:39;;;;;;;;;;;;;;;;;;5137763;27;20411;-69
2022/04/05 03:57:05;;;;;;;;;;;;;;;;;;5136674;27;19960;-68
2022/04/05 03:59:31;;;;;;;;;;;;;;;;;;5137888;27;19908;-69
2022/04/05 04:01:57;;;;;;;;;;;;;;;;;;5137497;27;19962;-69
2022/04/05 04:04:23;;;;;;;;;;;;;;;;;;5137686;27;20031;-69
2022/04/05 04:06:49;;;;;;;;;;;;;;;;;;5137803;27;20006;-69
2022/04/05 04:09:15;;;;;;;;;;;;;;;;;;5135944;27;19915;-69
2022/04/05 04:11:41;;;;;;;;;;;;;;;;;;5138099;27;20271;-68
2022/04/05 04:14:07;;;;;;;;;;;;;;;;;;5137594;27;20053;-69
2022/04/05 04:16:33;;;;;;;;;;;;;;;;;;5137166;27;20371;-72
2022/04/05 04:18:59;;;;;;;;;;;;;;;;;;5137473;27;20010;-72
2022/04/05 04:21:25;;;;;;;;;;;;;;;;;;5136205;27;19951;-72
2022/04/05 04:23:51;;;;;;;;;;;;;;;;;;5136977;27;19962;-72
2022/04/05 04:26:17;;;;;;;;;;;;;;;;;;5137872;27;19907;-72
2022/04/05 04:28:43;;;;;;;;;;;;;;;;;;5136074;27;19913;-72
2022/04/05 04:31:09;;;;;;;;;;;;;;;;;;5136895;27;20363;-72
2022/04/05 04:33:35;;;;;;;;;;;;;;;;;;5137192;27;19908;-72
2022/04/05 04:36:01;;;;;;;;;;;;;;;;;;5137329;27;19914;-73
2022/04/05 04:38:27;;;;;;;;;;;;;;;;;;5137722;27;20316;-72
2022/04/05 04:40:53;;;;;;;;;;;;;;;;;;5137093;27;19951;-72
2022/04/05 04:43:19;;;;;;;;;;;;;;;;;;5135086;27;20371;-72
2022/04/05 04:45:45;;;;;;;;;;;;;;;;;;5136988;27;20002;-72
2022/04/05 04:48:11;;;;;;;;;;;;;;;;;;5137541;27;19972;-72
2022/04/05 04:50:37;;;;;;;;;;;;;;;;;;5137417;27;19915;-73
2022/04/05 04:53:03;;;;;;;;;;;;;;;;;;5136919;27;20379;-72
2022/04/05 04:55:29;;;;;;;;;;;;;;;;;;5135513;27;20014;-72
2022/04/05 04:57:56;;;;;;;;;;;;;;;;;;5124999;27;19912;-73
2022/04/05 05:00:22;;;;;;;;;;;;;;;;;;5116212;28;19908;-73
2022/04/05 05:02:48;;;;;;;;;;;;;;;;;;5116628;28;20281;-73
2022/04/05 05:05:14;;;;;;;;;;;;;;;;;;5118895;27;19919;-73
2022/04/05 05:07:40;;;;;;;;;;;;;;;;;;5129796;27;19915;-71
2022/04/05 05:10:07;;;;;;;;;;;;;;;;;;5127309;27;19929;-71
2022/04/05 05:12:33;;;;;;;;;;;;;;;;;;5130583;27;20329;-71
2022/04/05 05:14:59;;;;;;;;;;;;;;;;;;5115705;27;19919;-72
2022/04/05 05:17:25;;;;;;;;;;;;;;;;;;5132366;27;19943;-72
2022/04/05 05:19:51;;;;;;;;;;;;;;;;;;5121263;27;19951;-72
2022/04/05 05:22:17;;;;;;;;;;;;;;;;;;5115759;27;19911;-72
2022/04/05 05:24:43;;;;;;;;;;;;;;;;;;5114346;27;19927;-73
2022/04/05 05:27:09;;;;;;;;;;;;;;;;;;5125773;27;19967;-73
2022/04/05 05:29:35;;;;;;;;;;;;;;;;;;5125801;27;20015;-73
2022/04/05 05:32:01;;;;;;;;;;;;;;;;;;5126963;27;20396;-71
2022/04/05 05:34:27;;;;;;;;;;;;;;;;;;5118761;27;19911;-70
2022/04/05 05:36:53;;;;;;;;;;;;;;;;;;5120617;27;19912;-70
2022/04/05 05:39:19;;;;;;;;;;;;;;;;;;5112162;28;20002;-70
2022/04/05 05:41:47;;;;;;;;;;;;;;;;;;5111180;28;19914;-71
2022/04/05 05:44:13;;;;;;;;;;;;;;;;;;5112506;28;19943;-71
2022/04/05 05:46:39;;;;;;;;;;;;;;;;;;5114900;27;20371;-72
2022/04/05 05:49:05;;;;;;;;;;;;;;;;;;5113083;28;19915;-71
2022/04/05 05:51:31;;;;;;;;;;;;;;;;;;5113173;28;20007;-71
2022/04/05 05:53:57;;;;;;;;;;;;;;;;;;5111496;27;20643;-71
2022/04/05 05:56:22;;;;;;;;;;;;;;;;;;5118019;27;19911;-71
2022/04/05 05:58:51;;;;;;;;;;;;;;;;;;5132118;27;19912;-71
2022/04/05 06:01:17;;;;;;;;;;;;;;;;;;5130320;27;19907;-70
2022/04/05 06:03:43;;;;;;;;;;;;;;;;;;5132926;27;19934;-72
2022/04/05 06:06:09;;;;;;;;;;;;;;;;;;5135570;27;19914;-72
2022/04/05 06:08:35;;;;;;;;;;;;;;;;;;5124646;27;19911;-71
2022/04/05 06:11:01;;;;;;;;;;;;;;;;;;5112071;28;19908;-70
2022/04/05 06:13:27;;;;;;;;;;;;;;;;;;5110580;28;19911;-71
2022/04/05 06:15:53;;;;;;;;;;;;;;;;;;5131646;27;19915;-72
2022/04/05 06:18:19;;;;;;;;;;;;;;;;;;5115765;27;20477;-72
2022/04/05 06:20:45;;;;;;;;;;;;;;;;;;5122038;27;19908;-72
2022/04/05 06:23:11;;;;;;;;;;;;;;;;;;5124083;27;19907;-70
2022/04/05 06:25:38;;;;;;;;;;;;;;;;;;5117372;27;19927;-71
2022/04/05 06:28:04;;;;;;;;;;;;;;;;;;5113578;28;19907;-71
2022/04/05 06:30:30;;;;;;;;;;;;;;;;;;5109349;28;19912;-70
2022/04/05 06:32:56;;;;;;;;;;;;;;;;;;5110958;28;19911;-72
2022/04/05 06:35:23;;;;;;;;;;;;;;;;;;5115697;27;19965;-72
2022/04/05 06:37:49;;;;;;;;;;;;;;;;;;5111459;28;19972;-70
2022/04/05 06:40:15;;;;;;;;;;;;;;;;;;5110201;28;19940;-71
2022/04/05 06:42:43;;;;;;;;;;;;;;;;;;5109491;28;20017;-73
2022/04/05 06:45:09;;;;;;;;;;;;;;;;;;5109881;28;20538;-72
2022/04/05 06:47:37;;;;;;;;;;;;;;;;;;5109135;28;19921;-74
2022/04/05 06:50:03;;;;;;;;;;;;;;;;;;5110198;28;19939;-72
2022/04/05 06:52:29;;;;;;;;;;;;;;;;;;5112878;28;19955;-70
2022/04/05 06:54:55;;;;;;;;;;;;;;;;;;5110578;28;20406;-72
2022/04/05 06:57:21;;;;;;;;;;;;;;;;;;5122481;28;19911;-72
2022/04/05 06:59:47;;;;;;;;;;;;;;;;;;5128054;28;20282;-71
2022/04/05 07:02:14;;;;;;;;;;;;;;;;;;5114800;28;19969;-73
2022/04/05 07:04:40;;;;;;;;;;;;;;;;;;5112540;28;19947;-71
2022/04/05 07:07:06;;;;;;;;;;;;;;;;;;5114352;28;19911;-71
2022/04/05 07:09:32;;;;;;;;;;;;;;;;;;5112039;28;19922;-74
2022/04/05 07:11:58;;;;;;;;;;;;;;;;;;5111069;28;19958;-72
2022/04/05 07:14:24;;;;;;;;;;;;;;;;;;5113500;28;19983;-71
2022/04/05 07:16:50;;;;;;;;;;;;;;;;;;5113226;28;19960;-73
2022/04/05 07:19:16;;;;;;;;;;;;;;;;;;5129661;28;19915;-71
2022/04/05 07:21:42;;;;;;;;;;;;;;;;;;5133898;28;20378;-73
2022/04/05 07:24:08;;;;;;;;;;;;;;;;;;5133504;28;19919;-73
2022/04/05 07:26:34;;;;;;;;;;;;;;;;;;5134623;27;19907;-72
2022/04/05 07:29:00;;;;;;;;;;;;;;;;;;5119371;27;20360;-72
2022/04/05 07:31:26;;;;;;;;;;;;;;;;;;5114381;28;20011;-72
2022/04/05 07:33:52;;;;;;;;;;;;;;;;;;5114808;28;19912;-72
2022/04/05 07:36:18;;;;;;;;;;;;;;;;;;5115328;28;20352;-73
2022/04/05 07:38:44;;;;;;;;;;;;;;;;;;5114075;28;20290;-72
2022/04/05 07:41:10;;;;;;;;;;;;;;;;;;5114827;28;19908;-72
2022/04/05 07:43:36;;;;;;;;;;;;;;;;;;5115659;28;20026;-72
2022/04/05 07:46:03;;;;;;;;;;;;;;;;;;5115573;28;20279;-72
2022/04/05 07:48:30;;;;;;;;;;;;;;;;;;5114743;28;20336;-72
2022/04/05 07:50:56;;;;;;;;;;;;;;;;;;5116879;27;19912;-73
2022/04/05 07:53:22;;;;;;;;;;;;;;;;;;5119523;27;19919;-72
2022/04/05 07:55:51;;;;;;;;;;;;;;;;;;5117203;27;19915;-73
2022/04/05 07:58:17;;;;;;;;;;;;;;;;;;5114689;28;19915;-70
2022/04/05 08:01:06;;;;;;;;;;;;;;;;;;5090135;27;19916;-72
2022/04/05 08:03:32;;;;;;;;;;;;;;;;;;5090658;28;19919;-72
2022/04/05 08:05:58;;;;;;;;;;;;;;;;;;5089537;28;20348;-72
2022/04/05 08:09:14;;;;;;;;;;;;;;;;;;5086728;27;20380;-70
2022/04/05 08:12:27;;;;;;;;;;;;;;;;;;5087021;27;19916;-70
2022/04/05 08:14:53;;;;;;;;;;;;;;;;;;5087220;28;20394;-71
2022/04/05 08:18:04;;;;;;;;;;;;;;;;;;5087125;27;19931;-70
2022/04/05 08:23:12;;;;;;;;;;;;;;;;;;5106296;27;20375;-70
2022/04/05 08:30:33;;;;;;;;;;;;;;;;;;5168941;27;19919;-71
2022/04/05 08:32:59;;;;;;;;;;;;;;;;;;5170799;27;19911;-71
2022/04/05 08:35:25;;;;;;;;;;;;;;;;;;5170661;27;19922;-73
2022/04/05 08:37:51;;;;;;;;;;;;;;;;;;5172884;27;19911;-72
2022/04/05 08:40:17;;;;;;;;;;;;;;;;;;5170664;27;19937;-72
2022/04/05 08:46:25;;;;;;;;;;;;;;;;;;5087757;27;19916;-73
2022/04/05 08:48:52;;;;;;;;;;;;;;;;;;5084711;28;19913;-73
2022/04/05 08:51:18;;;;;;;;;;;;;;;;;;5077191;28;19921;-72
2022/04/05 08:53:44;;;;;;;;;;;;;;;;;;5079685;28;20392;-71
2022/04/05 08:56:11;;;;;;;;;;;;;;;;;;5084676;28;19958;-66
2022/04/05 08:58:38;;;;;;;;;;;;;;;;;;5089224;28;19908;-66
2022/04/05 09:01:04;;;;;;;;;;;;;;;;;;5075129;28;20261;-66
2022/04/05 09:04:54;;;;;;;;;;;;;;;;;;5090758;27;19917;-75
2022/04/05 09:11:05;;;;;;;;;;;;;;;;;;5090586;27;19921;-76
2022/04/05 09:13:58;;;;;;;;;;;;;;;;;;5082250;27;19935;-79
2022/04/05 09:19:03;;;;;;;;;;;;;;;;;;5085021;27;20287;-76
2022/04/05 09:21:29;;;;;;;;;;;;;;;;;;5070384;28;19912;-77
2022/04/05 09:23:55;;;;;;;;;;;;;;;;;;5051576;28;20284;-75
2022/04/05 09:28:45;;;;;;;;;;;;;;;;;;5090398;27;19920;-76
2022/04/05 09:31:11;;;;;;;;;;;;;;;;;;5072929;28;19913;-75
2022/04/05 09:33:37;;;;;;;;;;;;;;;;;;5069699;28;19994;-76
2022/04/05 09:38:21;;;;;;;;;;;;;;;;;;5081527;27;19912;-75
2022/04/05 09:40:52;;;;;;;;;;;;;;;;;;5085400;28;19919;-77
2022/04/05 09:52:10;;;;;;;;;;;;;;;;;;5090602;27;20380;-79
2022/04/05 09:55:01;;;;;;;;;;;;;;;;;;5090583;27;19916;-78
2022/04/05 09:57:28;;;;;;;;;;;;;;;;;;5089952;28;19919;-76
2022/04/05 09:59:54;;;;;;;;;;;;;;;;;;5089960;28;19959;-73
2022/04/05 10:02:39;;;;;;;;;;;;;;;;;;4968697;28;19923;-71
2022/04/05 10:11:16;;;;;;;;;;;;;;;;;;5088257;27;19916;-73
2022/04/05 10:15:28;;;;;;;;;;;;;;;;;;5087647;27;19917;-78
2022/04/05 10:17:54;;;;;;;;;;;;;;;;;;5086307;28;19913;-73
2022/04/05 10:22:03;;;;;;;;;;;;;;;;;;5081689;27;20526;-72
2022/04/05 10:27:00;;;;;;;;;;;;;;;;;;5088426;27;19916;-77
2022/04/05 10:29:26;;;;;;;;;;;;;;;;;;5088827;28;20244;-76
2022/04/05 10:31:52;;;;;;;;;;;;;;;;;;5089173;28;19995;-75
2022/04/05 10:34:18;;;;;;;;;;;;;;;;;;5088919;28;19909;-75
2022/04/05 10:38:25;;;;;;;;;;;;;;;;;;5131600;27;19912;-70
2022/04/05 10:41:57;;;;;;;;;;;;;;;;;;5090288;27;19921;-73
2022/04/05 10:44:23;;;;;;;;;;;;;;;;;;5090601;28;20273;-73
2022/04/05 10:46:49;;;;;;;;;;;;;;;;;;5090506;28;20000;-76
2022/04/05 10:49:15;;;;;;;;;;;;;;;;;;5090106;28;19946;-74
2022/04/05 10:52:35;;;;;;;;;;;;;;;;;;5110759;27;20405;-74
2022/04/05 10:58:56;;;;;;;;;;;;;;;;;;5111587;27;20314;-73
2022/04/05 11:01:22;;;;;;;;;;;;;;;;;;5109952;28;20299;-70
2022/04/05 11:03:48;;;;;;;;;;;;;;;;;;5110054;28;19952;-75
2022/04/05 11:08:31;;;;;;;;;;;;;;;;;;5090927;27;19917;-73
2022/04/05 11:10:57;;;;;;;;;;;;;;;;;;5090503;28;19995;-72
2022/04/05 11:13:23;;;;;;;;;;;;;;;;;;5090380;28;19951;-72
2022/04/05 11:19:33;;;;;;;;;;;;;;;;;;5089915;27;19934;-71
2022/04/05 11:22:01;;;;;;;;;;;;;;;;;;5088839;28;19912;-69
2022/04/05 11:26:35;;;;;;;;;;;;;;;;;;5117919;27;19916;-71
2022/04/05 11:34:24;;;;;;;;;;;;;;;;;;5090108;28;19916;-71
2022/04/05 11:38:28;;;;;;;;;;;;;;;;;;5090238;27;19916;-70
2022/04/05 11:40:54;;;;;;;;;;;;;;;;;;5090728;28;19912;-72
2022/04/05 11:43:56;;;;;;;;;;;;;;;;;;5089968;27;19916;-69
2022/04/05 11:46:23;;;;;;;;;;;;;;;;;;5090449;28;19919;-70
2022/04/05 11:49:11;;;;;;;;;;;;;;;;;;5090835;27;19913;-70
2022/04/05 11:51:37;;;;;;;;;;;;;;;;;;5090551;28;19931;-69
2022/04/05 11:54:04;;;;;;;;;;;;;;;;;;5090306;28;19961;-73
2022/04/05 11:56:30;;;;;;;;;;;;;;;;;;5089002;28;20364;-70
2022/04/05 12:01:51;;;;;;;;;;;;;;;;;;5111120;27;19919;-69
2022/04/05 12:08:18;;;;;;;;;;;;;;;;;;5090580;27;19917;-71
2022/04/05 12:10:44;;;;;;;;;;;;;;;;;;5075989;28;19913;-71
2022/04/05 12:13:25;;;;;;;;;;;;;;;;;;5152018;27;20002;-73
2022/04/05 12:21:57;;;;;;;;;;;;;;;;;;5111064;27;19938;-70
2022/04/05 12:24:23;;;;;;;;;;;;;;;;;;5109911;28;19919;-71
2022/04/05 12:28:54;;;;;;;;;;;;;;;;;;5144292;27;20010;-72
2022/04/05 12:31:58;;;;;;;;;;;;;;;;;;5111440;27;19913;-73
2022/04/05 12:37:16;;;;;;;;;;;;;;;;;;5086811;27;20382;-72
2022/04/05 12:39:42;;;;;;;;;;;;;;;;;;5089165;28;19920;-74
2022/04/05 12:42:08;;;;;;;;;;;;;;;;;;5089786;28;20429;-73
2022/04/05 12:44:34;;;;;;;;;;;;;;;;;;5090166;28;19963;-71
2022/04/05 12:47:00;;;;;;;;;;;;;;;;;;5087396;28;19916;-72
2022/04/05 12:49:26;;;;;;;;;;;;;;;;;;5081488;28;19923;-68
2022/04/05 12:51:52;;;;;;;;;;;;;;;;;;5082767;28;19912;-68
2022/04/05 12:54:18;;;;;;;;;;;;;;;;;;5087016;28;19912;-70
2022/04/05 12:56:44;;;;;;;;;;;;;;;;;;5087542;28;19974;-70
2022/04/05 13:01:38;;;;;;;;;;;;;;;;;;5089017;28;19912;-70
2022/04/05 13:04:04;;;;;;;;;;;;;;;;;;5088605;28;20372;-70
2022/04/05 13:06:31;;;;;;;;;;;;;;;;;;5088968;28;19908;-70
2022/04/05 13:08:57;;;;;;;;;;;;;;;;;;5089417;28;19909;-69
2022/04/05 13:11:25;;;;;;;;;;;;;;;;;;5090791;28;20001;-69
2022/04/05 13:13:51;;;;;;;;;;;;;;;;;;5091057;28;20261;-70
2022/04/05 13:16:17;;;;;;;;;;;;;;;;;;5091004;28;19912;-69
2022/04/05 13:18:43;;;;;;;;;;;;;;;;;;5090624;28;19915;-70
2022/04/05 13:21:09;;;;;;;;;;;;;;;;;;5090867;28;20022;-70
2022/04/05 13:23:37;;;;;;;;;;;;;;;;;;5090655;28;19908;-70
2022/04/05 13:26:05;;;;;;;;;;;;;;;;;;5090841;28;19908;-70
2022/04/05 13:28:31;;;;;;;;;;;;;;;;;;5090814;28;19954;-70
2022/04/05 13:30:57;;;;;;;;;;;;;;;;;;5090249;28;19908;-70
2022/04/05 13:35:44;;;;;;;;;;;;;;;;;;5111858;27;19913;-71
2022/04/05 13:38:10;;;;;;;;;;;;;;;;;;5111291;28;20300;-71
2022/04/05 13:40:37;;;;;;;;;;;;;;;;;;5111584;28;19908;-70
2022/04/05 13:43:03;;;;;;;;;;;;;;;;;;5111568;28;20002;-70
2022/04/05 13:45:29;;;;;;;;;;;;;;;;;;5111199;28;19962;-70
2022/04/05 13:47:55;;;;;;;;;;;;;;;;;;5111456;28;19908;-70
2022/04/05 13:50:22;;;;;;;;;;;;;;;;;;5111584;28;19912;-70
2022/04/05 13:52:48;;;;;;;;;;;;;;;;;;5111241;28;19961;-70
2022/04/05 13:55:14;;;;;;;;;;;;;;;;;;5109759;28;20007;-70
2022/04/05 13:57:40;;;;;;;;;;;;;;;;;;5111244;28;19908;-70
2022/04/05 14:00:06;;;;;;;;;;;;;;;;;;5110630;28;20348;-70
2022/04/05 14:02:32;;;;;;;;;;;;;;;;;;5111266;28;20432;-70
2022/04/05 14:04:58;;;;;;;;;;;;;;;;;;5111255;28;19930;-70
2022/04/05 14:07:24;;;;;;;;;;;;;;;;;;5110683;28;19954;-70
2022/04/05 14:09:51;;;;;;;;;;;;;;;;;;5111159;28;19908;-70
2022/04/05 14:12:17;;;;;;;;;;;;;;;;;;5110880;28;20288;-70
2022/04/05 14:14:43;;;;;;;;;;;;;;;;;;5110581;28;20006;-70
2022/04/05 14:17:09;;;;;;;;;;;;;;;;;;5110874;28;19908;-70
2022/04/05 14:19:35;;;;;;;;;;;;;;;;;;5110766;28;19908;-70
2022/04/05 14:22:01;;;;;;;;;;;;;;;;;;5110316;28;19961;-70
2022/04/05 14:24:27;;;;;;;;;;;;;;;;;;5111359;28;20362;-70
2022/04/05 14:26:53;;;;;;;;;;;;;;;;;;5110322;28;20283;-69
2022/04/05 14:29:19;;;;;;;;;;;;;;;;;;5110676;28;19908;-69
2022/04/05 14:31:45;;;;;;;;;;;;;;;;;;5110963;28;19908;-69
2022/04/05 14:34:12;;;;;;;;;;;;;;;;;;5117870;28;19942;-69
2022/04/05 14:37:41;;;;;;;;;;;;;;;;;;5091885;27;20304;-70
2022/04/05 14:40:07;;;;;;;;;;;;;;;;;;5091300;28;19918;-71
2022/04/05 14:42:33;;;;;;;;;;;;;;;;;;5090865;28;20342;-70
2022/04/05 14:44:59;;;;;;;;;;;;;;;;;;5091219;28;19920;-70
2022/04/05 14:47:25;;;;;;;;;;;;;;;;;;5091135;28;20003;-70
2022/04/05 14:49:51;;;;;;;;;;;;;;;;;;5090650;28;19974;-70
2022/04/05 14:52:17;;;;;;;;;;;;;;;;;;5091262;28;19908;-70
2022/04/05 14:54:43;;;;;;;;;;;;;;;;;;5091685;28;19908;-70
2022/04/05 14:57:09;;;;;;;;;;;;;;;;;;5090540;28;20378;-70
2022/04/05 14:59:35;;;;;;;;;;;;;;;;;;5090816;28;19915;-70
2022/04/05 15:02:01;;;;;;;;;;;;;;;;;;5090817;28;19908;-70
2022/04/05 15:04:27;;;;;;;;;;;;;;;;;;5090899;28;19916;-70
2022/04/05 15:06:53;;;;;;;;;;;;;;;;;;5091111;28;19909;-70
2022/04/05 15:09:19;;;;;;;;;;;;;;;;;;5090320;28;20280;-70
2022/04/05 15:11:45;;;;;;;;;;;;;;;;;;5090804;28;19909;-70
2022/04/05 15:14:11;;;;;;;;;;;;;;;;;;5090565;28;19954;-70
2022/04/05 15:16:37;;;;;;;;;;;;;;;;;;5090635;28;19967;-69
2022/04/05 15:19:03;;;;;;;;;;;;;;;;;;5090579;28;20283;-72
2022/04/05 15:21:29;;;;;;;;;;;;;;;;;;5090520;28;19919;-70
2022/04/05 15:23:56;;;;;;;;;;;;;;;;;;5090226;28;19908;-70
2022/04/05 15:26:22;;;;;;;;;;;;;;;;;;5090596;28;19908;-70
2022/04/05 15:28:48;;;;;;;;;;;;;;;;;;5090402;28;19913;-70
2022/04/05 15:31:14;;;;;;;;;;;;;;;;;;5089831;28;20318;-69
2022/04/05 15:33:40;;;;;;;;;;;;;;;;;;5090290;28;20368;-70
2022/04/05 15:36:07;;;;;;;;;;;;;;;;;;5097881;28;19920;-70
2022/04/05 15:38:34;;;;;;;;;;;;;;;;;;5110125;28;19908;-70
2022/04/05 15:41:00;;;;;;;;;;;;;;;;;;5110581;28;19987;-70
2022/04/05 15:43:26;;;;;;;;;;;;;;;;;;5110862;28;20012;-70
2022/04/05 15:45:52;;;;;;;;;;;;;;;;;;5110049;28;20023;-70
2022/04/05 15:48:17;;;;;;;;;;;;;;;;;;5100571;28;19908;-70
2022/04/05 15:50:43;;;;;;;;;;;;;;;;;;5096734;28;20318;-70
2022/04/05 15:53:10;;;;;;;;;;;;;;;;;;5096272;28;20003;-70
2022/04/05 15:55:36;;;;;;;;;;;;;;;;;;5097062;28;20020;-70
2022/04/05 15:58:02;;;;;;;;;;;;;;;;;;5097105;28;20384;-70
2022/04/05 16:00:28;;;;;;;;;;;;;;;;;;5096137;28;19914;-70
2022/04/05 16:02:54;;;;;;;;;;;;;;;;;;5096663;28;19916;-71
2022/04/05 16:05:20;;;;;;;;;;;;;;;;;;5096404;28;20002;-70
2022/04/05 16:07:46;;;;;;;;;;;;;;;;;;5077842;28;19976;-70
2022/04/05 16:10:12;;;;;;;;;;;;;;;;;;5096031;28;19908;-71
2022/04/05 16:12:38;;;;;;;;;;;;;;;;;;5095905;28;19947;-71
2022/04/05 16:15:04;;;;;;;;;;;;;;;;;;5096307;28;19912;-71
2022/04/05 16:17:30;;;;;;;;;;;;;;;;;;5096126;28;20328;-71
2022/04/05 16:19:56;;;;;;;;;;;;;;;;;;5095952;28;19915;-71
2022/04/05 16:22:22;;;;;;;;;;;;;;;;;;5096701;28;20264;-70
2022/04/05 16:24:48;;;;;;;;;;;;;;;;;;5096637;28;19916;-70
2022/04/05 16:27:14;;;;;;;;;;;;;;;;;;5095747;28;19908;-69
2022/04/05 16:29:40;;;;;;;;;;;;;;;;;;5096207;28;20367;-70
2022/04/05 16:32:06;;;;;;;;;;;;;;;;;;5096339;28;19953;-70
2022/04/05 16:34:32;;;;;;;;;;;;;;;;;;5095483;28;19931;-70
2022/04/05 16:36:58;;;;;;;;;;;;;;;;;;5095816;28;19971;-71
2022/04/05 16:39:24;;;;;;;;;;;;;;;;;;5096323;28;19947;-70
2022/04/05 16:41:50;;;;;;;;;;;;;;;;;;5095532;28;20288;-71
2022/04/05 16:46:04;;;;;;;;;;;;;;;;;;5092217;27;19923;-70
2022/04/05 16:48:30;;;;;;;;;;;;;;;;;;5090232;28;19913;-70
2022/04/05 16:50:56;;;;;;;;;;;;;;;;;;5091243;28;20341;-70
2022/04/05 16:53:22;;;;;;;;;;;;;;;;;;5091282;28;19908;-70
2022/04/05 16:55:49;;;;;;;;;;;;;;;;;;5090815;28;19977;-70
2022/04/05 16:58:15;;;;;;;;;;;;;;;;;;5090914;28;19916;-69
2022/04/05 17:00:41;;;;;;;;;;;;;;;;;;5091651;28;20329;-71
2022/04/05 17:10:26;;;;;;;;;;;;;;;;;;5091125;27;19916;-71
2022/04/05 17:16:54;;;;;;;;;;;;;;;;;;5111559;27;19915;-70
2022/04/05 17:24:53;;;;;;;;;;;;;;;;;;5090840;27;19916;-70
2022/04/05 17:27:19;;;;;;;;;;;;;;;;;;5091192;28;20430;-69
2022/04/05 17:29:45;;;;;;;;;;;;;;;;;;5091810;28;19909;-70
2022/04/05 17:32:11;;;;;;;;;;;;;;;;;;5090915;28;19908;-70
2022/04/05 17:34:37;;;;;;;;;;;;;;;;;;5091197;28;19931;-70
2022/04/05 17:37:03;;;;;;;;;;;;;;;;;;5090398;28;19912;-69
2022/04/05 17:42:42;;;;;;;;;;;;;;;;;;5091226;28;19923;-68
2022/04/05 17:45:08;;;;;;;;;;;;;;;;;;5090742;28;19912;-69
2022/04/05 17:47:34;;;;;;;;;;;;;;;;;;5091367;28;19970;-68
2022/04/05 17:50:00;;;;;;;;;;;;;;;;;;5091270;28;19999;-68
2022/04/05 17:52:57;;;;;;;;;;;;;;;;;;5091147;27;19917;-68
2022/04/05 17:55:44;;;;;;;;;;;;;;;;;;5091598;27;19912;-68
2022/04/05 17:58:45;;;;;;;;;;;;;;;;;;5091227;28;19917;-70
2022/04/05 18:01:11;;;;;;;;;;;;;;;;;;5091306;28;19948;-70
2022/04/05 18:04:50;;;;;;;;;;;;;;;;;;5092110;27;19922;-70
2022/04/05 18:07:16;;;;;;;;;;;;;;;;;;5090994;28;19965;-69
2022/04/05 18:09:44;;;;;;;;;;;;;;;;;;5091272;28;19908;-68
2022/04/05 18:13:08;;;;;;;;;;;;;;;;;;5091348;27;19912;-69
2022/04/05 18:15:45;;;;;;;;;;;;;;;;;;5091436;27;19916;-68
2022/04/05 18:18:25;;;;;;;;;;;;;;;;;;5091528;27;19923;-69
2022/04/05 18:20:51;;;;;;;;;;;;;;;;;;5090955;28;19912;-69
2022/04/05 18:23:17;;;;;;;;;;;;;;;;;;5091048;28;19930;-69
2022/04/05 18:25:43;;;;;;;;;;;;;;;;;;5091294;28;19908;-68
2022/04/05 18:28:09;;;;;;;;;;;;;;;;;;5090909;28;19908;-68
2022/04/05 18:30:35;;;;;;;;;;;;;;;;;;5091189;28;19909;-69
2022/04/05 18:33:01;;;;;;;;;;;;;;;;;;5090892;28;19915;-69
2022/04/05 18:35:27;;;;;;;;;;;;;;;;;;5090672;28;19908;-70
2022/04/05 18:37:53;;;;;;;;;;;;;;;;;;5091312;28;19917;-69
2022/04/05 18:40:19;;;;;;;;;;;;;;;;;;5090564;28;19915;-68